Time;durP1;ratioP1;P1;durP2;ratioP2;P2;SDS_P1;SDS_P2;PMS_P1;PMS_P2;Temp;Humidity;BMP_temperature;BMP_pressure;BME280_temperature;BME280_humidity;BME280_pressure;Samples;Min_cycle;Max_cycle;Signal;HPM_P1;HPM_P2
2021/11/12 00:02:30;;;;;;;27.60;25.17;;;12.30;99.90;;;;;;5032471;28;20428;-57
2021/11/12 00:13:12;;;;;;;27.80;25.50;;;12.20;99.90;;;;;;5032390;28;20425;-59
2021/11/12 00:15:45;;;;;;;23.27;21.50;;;12.10;99.90;;;;;;5032274;28;20515;-58
2021/11/12 00:18:11;;;;;;;25.77;23.47;;;12.10;99.90;;;;;;5032150;28;20481;-57
2021/11/12 00:20:38;;;;;;;26.50;24.40;;;12.10;99.90;;;;;;5031850;28;20452;-60
2021/11/12 00:23:05;;;;;;;28.53;26.07;;;12.10;99.90;;;;;;5032022;28;20480;-56
2021/11/12 00:25:33;;;;;;;24.63;22.50;;;12.10;99.90;;;;;;5032061;28;20473;-59
2021/11/12 00:28:00;;;;;;;24.20;22.30;;;12.10;99.90;;;;;;5031936;28;20453;-59
2021/11/12 00:30:35;;;;;;;26.40;24.30;;;12.00;99.90;;;;;;5031818;28;20448;-60
2021/11/12 00:33:09;;;;;;;26.20;24.00;;;11.90;99.90;;;;;;5031958;28;20448;-60
2021/11/12 00:35:41;;;;;;;28.33;25.70;;;12.00;99.90;;;;;;5031883;28;20465;-59
2021/11/12 00:38:10;;;;;;;23.60;21.90;;;12.00;99.90;;;;;;5031810;28;20480;-56
2021/11/12 00:40:48;;;;;;;24.50;22.40;;;12.00;99.90;;;;;;5031488;28;20449;-60
2021/11/12 00:43:26;;;;;;;28.83;26.10;;;12.00;99.90;;;;;;5031914;28;20482;-59
2021/11/12 00:46:05;;;;;;;25.90;23.60;;;11.80;99.90;;;;;;5031747;28;20483;-56
2021/11/12 00:48:35;;;;;;;26.30;24.10;;;11.80;99.90;;;;;;5031903;28;20492;-58
2021/11/12 00:51:15;;;;;;;28.97;26.23;;;11.80;99.90;;;;;;5031687;28;20456;-60
2021/11/12 00:53:51;;;;;;;27.70;25.37;;;11.90;99.90;;;;;;5031801;28;20536;-60
2021/11/12 00:56:22;;;;;;;25.53;23.30;;;11.70;99.90;;;;;;5031695;28;20465;-55
2021/11/12 00:58:49;;;;;;;26.27;23.67;;;11.90;99.90;;;;;;5031546;28;20480;-59
2021/11/12 01:01:16;;;;;;;25.43;22.90;;;11.90;99.90;;;;;;5031470;28;20449;-60
2021/11/12 01:03:43;;;;;;;25.97;23.77;;;11.80;99.90;;;;;;5031621;28;20449;-57
2021/11/12 01:06:10;;;;;;;23.00;20.93;;;11.80;99.90;;;;;;5031768;28;20489;-61
2021/11/12 01:08:37;;;;;;;23.87;21.87;;;11.60;99.90;;;;;;5031717;28;20445;-60
2021/11/12 01:11:04;;;;;;;27.03;24.93;;;11.60;99.90;;;;;;5035406;28;20817;-61
2021/11/12 01:13:34;;;;;;;29.53;26.73;;;11.70;99.90;;;;;;5035749;28;20449;-60
2021/11/12 01:16:01;;;;;;;27.60;25.00;;;11.50;99.90;;;;;;5035658;28;20500;-60
2021/11/12 01:18:28;;;;;;;27.67;25.43;;;11.50;99.90;;;;;;5035401;28;20490;-60
2021/11/12 01:20:55;;;;;;;23.10;21.30;;;11.40;99.90;;;;;;5035414;28;20631;-61
2021/11/12 01:23:22;;;;;;;28.03;25.50;;;11.50;99.90;;;;;;5035499;28;20445;-58
2021/11/12 01:25:48;;;;;;;28.03;25.53;;;11.40;99.90;;;;;;5035356;28;20556;-61
2021/11/12 01:28:15;;;;;;;25.27;22.97;;;11.40;99.90;;;;;;5035293;28;20436;-60
2021/11/12 01:30:43;;;;;;;24.37;22.27;;;11.50;99.90;;;;;;5035256;28;20449;-59
2021/11/12 01:33:10;;;;;;;26.07;23.97;;;11.30;99.90;;;;;;5035237;28;20448;-60
2021/11/12 01:35:38;;;;;;;32.37;25.33;;;11.30;99.90;;;;;;5035098;28;20480;-60
2021/11/12 01:38:05;;;;;;;24.73;22.70;;;11.30;99.90;;;;;;5035064;28;20520;-59
2021/11/12 01:40:31;;;;;;;26.23;24.03;;;11.30;99.90;;;;;;5034974;28;20445;-60
2021/11/12 01:43:12;;;;;;;24.77;22.57;;;11.40;99.90;;;;;;5035033;28;20448;-60
2021/11/12 01:45:58;;;;;;;22.20;20.23;;;11.30;99.90;;;;;;5034994;28;20469;-59
2021/11/12 01:51:19;;;;;;;24.93;22.73;;;11.70;99.90;;;;;;5025708;28;20538;-59
2021/11/12 01:53:50;;;;;;;25.43;23.50;;;11.70;99.90;;;;;;5034768;28;20512;-57
2021/11/12 01:56:34;;;;;;;22.73;20.80;;;11.50;99.90;;;;;;5034754;28;20962;-58
2021/11/12 01:59:10;;;;;;;27.00;24.80;;;11.40;99.90;;;;;;5034539;28;20566;-61
2021/11/12 02:01:42;;;;;;;24.80;22.60;;;11.40;99.90;;;;;;5034666;28;20957;-58
2021/11/12 02:04:13;;;;;;;23.63;21.53;;;11.70;99.90;;;;;;5034645;28;20954;-60
2021/11/12 02:06:41;;;;;;;25.43;22.73;;;11.70;99.90;;;;;;5034572;28;20512;-60
2021/11/12 02:09:12;;;;;;;23.03;21.13;;;11.50;99.90;;;;;;5034398;28;20445;-59
2021/11/12 02:11:39;;;;;;;23.97;21.77;;;11.40;99.90;;;;;;5034515;28;20483;-59
2021/11/12 02:14:07;;;;;;;22.90;21.00;;;11.40;99.90;;;;;;5034384;28;20480;-60
2021/11/12 02:16:38;;;;;;;22.20;20.03;;;11.10;99.90;;;;;;5034269;28;20500;-57
2021/11/12 02:19:05;;;;;;;27.63;25.13;;;11.20;99.90;;;;;;5034182;28;20489;-57
2021/11/12 02:21:38;;;;;;;26.20;24.07;;;11.00;99.90;;;;;;5033759;28;20440;-59
2021/11/12 02:24:07;;;;;;;22.37;20.20;;;11.10;99.90;;;;;;5034341;28;20441;-59
2021/11/12 02:26:37;;;;;;;25.97;23.70;;;11.10;99.90;;;;;;5034290;28;20511;-58
2021/11/12 02:29:06;;;;;;;25.90;23.90;;;11.00;99.90;;;;;;5034420;28;20449;-59
2021/11/12 02:31:33;;;;;;;22.03;20.13;;;11.00;99.90;;;;;;5034261;28;20551;-58
2021/11/12 02:34:04;;;;;;;21.27;19.57;;;11.00;99.90;;;;;;5034130;28;20449;-60
2021/11/12 02:36:31;;;;;;;20.07;18.33;;;11.30;99.90;;;;;;5034205;28;20512;-60
2021/11/12 02:39:00;;;;;;;23.27;21.50;;;11.20;99.90;;;;;;5033778;28;20481;-60
2021/11/12 02:41:27;;;;;;;24.30;21.93;;;11.50;99.90;;;;;;5034060;28;20457;-57
2021/11/12 02:43:54;;;;;;;24.03;21.93;;;11.30;99.90;;;;;;5033957;28;20452;-59
2021/11/12 02:46:25;;;;;;;23.40;21.60;;;11.10;99.90;;;;;;5033811;28;20465;-61
2021/11/12 02:48:53;;;;;;;25.87;23.50;;;11.00;99.90;;;;;;5033987;28;20444;-58
2021/11/12 02:51:26;;;;;;;24.03;22.03;;;10.90;99.90;;;;;;5033885;28;20457;-60
2021/11/12 02:53:55;;;;;;;26.43;24.33;;;10.90;99.90;;;;;;5033986;28;20449;-60
2021/11/12 02:56:28;;;;;;;24.50;22.57;;;11.00;99.90;;;;;;5033562;28;20796;-58
2021/11/12 02:58:58;;;;;;;24.83;22.73;;;11.00;99.90;;;;;;5033670;28;20567;-58
2021/11/12 03:01:26;;;;;;;22.83;20.93;;;10.80;99.90;;;;;;5033506;28;20457;-59
2021/11/12 03:03:53;;;;;;;24.40;22.37;;;10.90;99.90;;;;;;5033667;28;20460;-59
2021/11/12 03:06:21;;;;;;;24.00;22.00;;;11.10;99.90;;;;;;5033389;28;20832;-59
2021/11/12 03:08:48;;;;;;;24.80;22.87;;;11.00;99.90;;;;;;5033535;28;20442;-61
2021/11/12 03:11:15;;;;;;;22.73;20.90;;;10.90;99.90;;;;;;5033502;28;20449;-61
2021/11/12 03:13:45;;;;;;;21.07;19.37;;;10.80;99.90;;;;;;5033422;28;20445;-61
2021/11/12 03:16:12;;;;;;;21.30;19.60;;;10.80;99.90;;;;;;5033353;28;20507;-61
2021/11/12 03:18:39;;;;;;;22.90;21.10;;;10.80;99.90;;;;;;5033026;28;20481;-62
2021/11/12 03:21:07;;;;;;;23.80;22.00;;;10.90;99.90;;;;;;5033053;28;20811;-61
2021/11/12 03:23:37;;;;;;;22.03;20.40;;;11.20;99.90;;;;;;5033245;28;20448;-61
2021/11/12 03:26:15;;;;;;;19.40;17.70;;;11.70;99.90;;;;;;5033198;28;20515;-61
2021/11/12 04:01:50;;;;;;;18.17;16.67;;;11.80;99.90;;;;;;5032505;28;20499;-60
2021/11/12 04:04:30;;;;;;;19.47;17.80;;;11.80;99.90;;;;;;5032487;28;20456;-57
2021/11/12 04:07:04;;;;;;;19.93;18.30;;;11.60;99.90;;;;;;5032414;28;20823;-58
2021/11/12 04:18:03;;;;;;;16.63;15.43;;;11.70;99.90;;;;;;5032248;28;20448;-55
2021/11/12 04:20:52;;;;;;;17.70;16.40;;;12.10;99.90;;;;;;5032095;28;20449;-59
2021/11/12 05:10:29;;;;;;;19.00;17.30;;;11.90;99.90;;;;;;5042174;28;20510;-60
2021/11/12 05:46:14;;;;;;;17.87;16.53;;;12.90;99.90;;;;;;5031282;28;20440;-60
2021/11/12 05:51:31;;;;;;;19.47;18.13;;;13.10;99.90;;;;;;5031203;28;20427;-61
2021/11/12 05:56:45;;;;;;;19.60;18.00;;;13.10;99.90;;;;;;5033215;28;20514;-60
2021/11/12 05:59:13;;;;;;;18.33;17.10;;;13.30;99.90;;;;;;5034876;28;20488;-61
2021/11/12 06:01:42;;;;;;;20.77;19.27;;;13.40;99.90;;;;;;5034760;28;20445;-61
2021/11/12 06:04:09;;;;;;;19.63;18.13;;;13.50;99.90;;;;;;5034996;28;20615;-60
2021/11/12 06:06:36;;;;;;;14.57;13.77;;;13.20;99.90;;;;;;5034850;28;20881;-49
2021/11/12 06:09:04;;;;;;;13.37;12.87;;;14.10;99.90;;;;;;5034919;28;20865;-52
2021/11/12 06:11:32;;;;;;;13.80;13.30;;;17.60;99.70;;;;;;5034622;28;20449;-49
2021/11/12 06:14:01;;;;;;;13.83;13.43;;;19.20;93.40;;;;;;5034702;28;20449;-49
2021/11/12 06:16:28;;;;;;;13.97;13.47;;;19.90;88.70;;;;;;5034567;28;20472;-47
2021/11/12 06:18:55;;;;;;;14.17;13.67;;;20.40;83.30;;;;;;5034637;28;20503;-48
2021/11/12 06:21:23;;;;;;;14.57;13.97;;;20.60;80.30;;;;;;5034226;28;20456;-48
2021/11/12 06:23:50;;;;;;;14.10;13.60;;;20.80;77.50;;;;;;5034331;28;20922;-56
2021/11/12 06:26:17;;;;;;;11.93;11.53;;;21.00;75.40;;;;;;5034489;28;20465;-49
2021/11/12 06:28:44;;;;;;;12.37;11.90;;;21.00;73.90;;;;;;5034282;28;20504;-51
2021/11/12 06:31:13;;;;;;;13.47;12.97;;;21.00;73.30;;;;;;5034134;28;20449;-46
2021/11/12 06:33:39;;;;;;;13.43;13.03;;;21.00;73.20;;;;;;5034503;28;20536;-52
2021/11/12 06:36:06;;;;;;;11.73;11.43;;;21.00;72.50;;;;;;5034198;28;21080;-56
2021/11/12 06:38:36;;;;;;;12.80;12.30;;;21.00;71.60;;;;;;5034129;28;20495;-48
2021/11/12 06:41:08;;;;;;;12.50;12.10;;;20.90;71.60;;;;;;5033578;28;20445;-48
2021/11/12 06:43:40;;;;;;;12.70;12.30;;;20.90;72.20;;;;;;5034015;28;20982;-49
2021/11/12 06:51:40;;;;;;;13.10;12.60;;;20.80;72.70;;;;;;5034077;28;20523;-50
2021/11/12 06:54:07;;;;;;;13.70;13.10;;;20.80;73.00;;;;;;5034000;28;20950;-50
2021/11/12 06:56:34;;;;;;;13.63;13.20;;;20.60;72.70;;;;;;5033789;28;20469;-47
2021/11/12 06:59:01;;;;;;;13.50;13.00;;;20.60;72.90;;;;;;5033647;28;20492;-52
2021/11/12 07:01:30;;;;;;;12.70;12.30;;;20.70;73.00;;;;;;5033774;28;20453;-49
2021/11/12 07:03:58;;;;;;;13.77;13.37;;;20.60;72.70;;;;;;5033945;28;20463;-46
2021/11/12 07:06:25;;;;;;;12.87;12.47;;;20.60;72.90;;;;;;5033649;28;20523;-55
2021/11/12 07:08:52;;;;;;;13.07;12.67;;;20.50;72.90;;;;;;5033843;28;20441;-52
2021/11/12 07:11:20;;;;;;;12.63;12.23;;;20.50;72.70;;;;;;5033758;28;20449;-54
2021/11/12 07:13:47;;;;;;;13.33;12.83;;;20.50;72.50;;;;;;5033611;28;20527;-52
2021/11/12 07:16:14;;;;;;;13.17;12.57;;;20.50;73.70;;;;;;5033857;28;20465;-53
2021/11/12 07:18:41;;;;;;;14.17;13.57;;;20.50;77.00;;;;;;5033732;28;20564;-51
2021/11/12 07:21:09;;;;;;;15.07;14.27;;;20.50;79.90;;;;;;5033409;28;20452;-55
2021/11/12 07:23:36;;;;;;;14.60;13.80;;;20.50;83.80;;;;;;5033542;28;20446;-55
2021/11/12 07:26:03;;;;;;;15.50;14.60;;;20.40;89.30;;;;;;5033567;28;20472;-52
2021/11/12 07:28:29;;;;;;;15.30;14.40;;;20.40;91.30;;;;;;5033376;28;20790;-56
2021/11/12 07:30:57;;;;;;;15.97;14.77;;;20.40;94.50;;;;;;5033092;28;20445;-53
2021/11/12 07:33:24;;;;;;;17.43;16.17;;;20.40;96.00;;;;;;5033528;28;20448;-54
2021/11/12 07:35:54;;;;;;;19.70;17.93;;;20.40;98.30;;;;;;5033283;28;20567;-53
2021/11/12 07:38:24;;;;;;;17.37;15.63;;;20.40;97.70;;;;;;5033353;28;20449;-48
2021/11/12 07:41:14;;;;;;;18.53;17.20;;;20.40;99.90;;;;;;5032998;28;20488;-55
2021/11/12 07:46:35;;;;;;;17.60;16.40;;;20.30;99.90;;;;;;5033275;28;20444;-56
2021/11/12 07:49:05;;;;;;;18.63;17.23;;;20.20;99.90;;;;;;5032991;28;20445;-53
2021/11/12 07:51:32;;;;;;;18.07;16.47;;;20.30;99.90;;;;;;5032796;28;20822;-46
2021/11/12 07:54:00;;;;;;;17.20;15.80;;;20.20;99.90;;;;;;5032989;28;20449;-47
2021/11/12 07:56:27;;;;;;;16.00;15.00;;;20.20;99.90;;;;;;5032806;28;20465;-48
2021/11/12 07:58:54;;;;;;;16.70;15.60;;;20.10;99.90;;;;;;5032657;28;20563;-47
2021/11/12 08:01:21;;;;;;;15.97;14.70;;;20.10;99.90;;;;;;5032392;28;20461;-50
2021/11/12 08:03:52;;;;;;;16.20;14.87;;;20.10;99.90;;;;;;5032715;28;20453;-55
2021/11/12 08:06:20;;;;;;;14.90;13.80;;;20.10;99.90;;;;;;5032720;28;20480;-53
2021/11/12 08:08:54;;;;;;;14.17;13.37;;;20.00;99.60;;;;;;5032431;28;20892;-50
2021/11/12 08:11:26;;;;;;;15.57;14.60;;;20.00;99.40;;;;;;5032358;28;20541;-48
2021/11/12 08:13:56;;;;;;;15.03;13.93;;;20.00;99.30;;;;;;5032516;28;20453;-48
2021/11/12 08:16:35;;;;;;;16.73;15.47;;;19.90;99.40;;;;;;5032608;28;20835;-49
2021/11/12 08:19:05;;;;;;;14.77;13.97;;;19.90;99.20;;;;;;5031574;28;20982;-50
2021/11/12 08:21:38;;;;;;;14.63;13.80;;;19.90;98.70;;;;;;5032391;28;20954;-47
2021/11/12 08:24:09;;;;;;;15.43;14.43;;;19.90;98.70;;;;;;5032412;28;20445;-50
2021/11/12 08:26:46;;;;;;;14.73;13.77;;;19.80;98.60;;;;;;5032831;28;20461;-52
2021/11/12 08:32:10;;;;;;;14.67;13.97;;;19.70;98.50;;;;;;5032305;28;20437;-49
2021/11/12 08:37:42;;;;;;;16.40;15.13;;;19.60;97.90;;;;;;4990957;28;20455;-50
2021/11/12 08:40:17;;;;;;;15.67;14.73;;;19.60;97.60;;;;;;5024406;28;20487;-51
2021/11/12 08:42:48;;;;;;;15.50;14.70;;;19.40;97.50;;;;;;5032297;28;20665;-50
2021/11/12 08:45:19;;;;;;;13.67;12.97;;;19.40;98.00;;;;;;5032170;28;20507;-48
2021/11/12 08:47:49;;;;;;;14.67;13.87;;;19.30;97.70;;;;;;5032013;28;21009;-50
2021/11/12 08:50:18;;;;;;;15.80;14.80;;;19.20;97.60;;;;;;5031660;28;20445;-49
2021/11/12 08:52:45;;;;;;;14.63;13.80;;;19.20;97.50;;;;;;5031742;28;20934;-48
2021/11/12 08:55:13;;;;;;;15.10;14.30;;;19.20;97.60;;;;;;5031775;28;20464;-48
2021/11/12 08:57:40;;;;;;;15.20;14.37;;;19.20;97.70;;;;;;5031839;28;20834;-53
2021/11/12 09:00:10;;;;;;;15.27;14.50;;;19.20;97.40;;;;;;5031189;28;20852;-48
2021/11/12 09:02:37;;;;;;;14.57;13.87;;;19.20;97.70;;;;;;5031925;28;20449;-47
2021/11/12 09:05:04;;;;;;;13.13;12.63;;;19.20;97.70;;;;;;5031817;28;20815;-47
2021/11/12 09:07:31;;;;;;;14.53;13.93;;;19.20;97.70;;;;;;5031466;28;20476;-48
2021/11/12 09:09:58;;;;;;;14.30;13.50;;;19.30;97.50;;;;;;5031501;28;20611;-48
2021/11/12 09:12:26;;;;;;;13.60;13.00;;;19.30;97.70;;;;;;5031496;28;20930;-49
2021/11/12 09:14:55;;;;;;;14.60;13.80;;;19.20;98.30;;;;;;5031594;28;20445;-49
2021/11/12 09:17:27;;;;;;;15.03;14.17;;;19.20;98.20;;;;;;5031481;28;20465;-48
2021/11/12 09:19:57;;;;;;;14.17;13.57;;;19.30;98.10;;;;;;5031574;28;20507;-48
2021/11/12 09:22:26;;;;;;;14.53;14.00;;;19.30;98.10;;;;;;5031578;28;20457;-49
2021/11/12 09:24:53;;;;;;;15.00;14.30;;;19.30;98.30;;;;;;5031864;28;20495;-50
2021/11/12 09:27:22;;;;;;;14.53;13.83;;;19.20;97.80;;;;;;5031530;28;20460;-51
2021/11/12 09:29:49;;;;;;;13.40;13.00;;;19.20;97.60;;;;;;5031637;28;20441;-52
2021/11/12 09:32:16;;;;;;;15.37;14.60;;;19.20;97.20;;;;;;5035807;28;20452;-52
2021/11/12 09:34:45;;;;;;;13.70;13.10;;;19.20;97.40;;;;;;5035800;28;21102;-54
2021/11/12 09:37:19;;;;;;;15.77;14.87;;;19.20;97.70;;;;;;5035808;28;20518;-53
2021/11/12 09:39:47;;;;;;;15.03;14.43;;;19.20;97.50;;;;;;5034901;28;20480;-54
2021/11/12 09:42:14;;;;;;;14.17;13.57;;;19.30;97.50;;;;;;5035674;28;20446;-54
2021/11/12 09:44:42;;;;;;;15.50;14.70;;;19.30;97.30;;;;;;5035430;28;20456;-50
2021/11/12 09:47:09;;;;;;;13.90;13.20;;;19.30;97.30;;;;;;5035283;28;20826;-60
2021/11/12 09:49:37;;;;;;;14.03;13.50;;;19.40;97.20;;;;;;5034851;28;20448;-58
2021/11/12 09:52:09;;;;;;;13.97;13.37;;;19.30;96.80;;;;;;5035033;28;20481;-57
2021/11/12 09:54:35;;;;;;;13.87;13.27;;;19.20;96.80;;;;;;5035468;28;20487;-59
2021/11/12 09:57:02;;;;;;;13.43;12.83;;;19.10;96.80;;;;;;5035011;28;20472;-58
2021/11/12 09:59:33;;;;;;;13.67;13.17;;;19.10;96.90;;;;;;5034721;28;20490;-58
2021/11/12 10:02:01;;;;;;;14.93;14.23;;;19.10;96.80;;;;;;5035142;28;20500;-53
2021/11/12 10:04:28;;;;;;;13.10;12.60;;;19.20;96.90;;;;;;5035136;28;20452;-53
2021/11/12 10:06:58;;;;;;;15.10;14.30;;;19.30;97.00;;;;;;5034307;28;20563;-52
2021/11/12 10:09:26;;;;;;;13.33;12.83;;;19.40;96.80;;;;;;5034779;28;20536;-56
2021/11/12 10:11:55;;;;;;;14.20;13.60;;;19.40;96.40;;;;;;5035075;28;20449;-54
2021/11/12 10:14:35;;;;;;;13.93;13.23;;;19.40;96.50;;;;;;5034951;28;20441;-53
2021/11/12 10:17:02;;;;;;;12.73;12.23;;;19.50;96.40;;;;;;5034325;28;21022;-54
2021/11/12 10:19:29;;;;;;;12.53;12.10;;;19.50;96.20;;;;;;5034369;28;20452;-56
2021/11/12 10:22:00;;;;;;;13.70;13.10;;;19.50;96.00;;;;;;5034628;28;20532;-56
2021/11/12 10:24:31;;;;;;;13.37;12.97;;;19.50;95.80;;;;;;5034732;28;20449;-55
2021/11/12 10:27:01;;;;;;;13.73;12.93;;;19.50;95.80;;;;;;5034385;28;20469;-55
2021/11/12 10:29:31;;;;;;;14.27;13.60;;;19.50;95.90;;;;;;5034507;28;20472;-56
2021/11/12 10:32:00;;;;;;;13.60;13.10;;;19.40;95.80;;;;;;5034258;28;20449;-56
2021/11/12 10:34:29;;;;;;;13.57;12.90;;;19.40;96.00;;;;;;5034634;28;20453;-52
2021/11/12 10:37:00;;;;;;;13.10;12.50;;;19.50;96.00;;;;;;5033575;28;20469;-56
2021/11/12 10:39:34;;;;;;;13.40;12.50;;;19.40;95.60;;;;;;5033924;28;20452;-57
2021/11/12 10:42:03;;;;;;;13.00;12.50;;;19.30;95.50;;;;;;5033716;28;20467;-52
2021/11/12 10:44:32;;;;;;;15.17;14.40;;;19.30;95.50;;;;;;5034600;28;20453;-53
2021/11/12 10:47:03;;;;;;;13.67;13.13;;;19.30;95.30;;;;;;5034100;28;20966;-52
2021/11/12 10:49:32;;;;;;;13.63;13.13;;;19.30;95.00;;;;;;5033874;28;20445;-53
2021/11/12 10:52:01;;;;;;;13.77;13.17;;;19.40;94.70;;;;;;5034156;28;20477;-55
2021/11/12 10:54:42;;;;;;;13.73;13.20;;;19.50;94.20;;;;;;5034099;28;20448;-56
2021/11/12 10:57:10;;;;;;;13.17;12.57;;;19.70;93.60;;;;;;5033985;28;20534;-54
2021/11/12 10:59:51;;;;;;;12.67;12.27;;;19.80;93.10;;;;;;5033715;28;20445;-55
2021/11/12 11:02:22;;;;;;;13.70;13.13;;;19.90;92.60;;;;;;5033933;28;20511;-55
2021/11/12 11:04:48;;;;;;;14.47;13.87;;;20.10;91.60;;;;;;5033894;28;20441;-52
2021/11/12 11:07:18;;;;;;;13.93;13.30;;;20.50;90.80;;;;;;5034350;28;20473;-51
2021/11/12 11:09:46;;;;;;;14.60;14.10;;;20.90;89.00;;;;;;5033651;28;20452;-50
2021/11/12 11:12:32;;;;;;;13.57;13.07;;;21.50;85.20;;;;;;5033931;28;20835;-49
2021/11/12 11:15:15;;;;;;;12.97;12.47;;;22.40;79.40;;;;;;5033774;28;20820;-52
2021/11/12 11:17:44;;;;;;;14.33;13.67;;;22.20;75.20;;;;;;5033743;28;20468;-51
2021/11/12 11:20:14;;;;;;;14.10;13.70;;;22.60;74.00;;;;;;5033348;28;20485;-54
2021/11/12 11:22:46;;;;;;;13.80;13.30;;;23.20;70.20;;;;;;5033553;28;20456;-50
2021/11/12 11:25:14;;;;;;;15.50;14.60;;;23.60;66.30;;;;;;5033571;28;20452;-55
2021/11/12 11:27:44;;;;;;;14.70;14.20;;;23.90;63.40;;;;;;5033502;28;20471;-51
2021/11/12 11:30:12;;;;;;;14.33;13.73;;;23.90;61.50;;;;;;5033193;28;20445;-53
2021/11/12 11:32:40;;;;;;;13.93;13.50;;;24.00;60.00;;;;;;5033244;28;20531;-54
2021/11/12 11:35:08;;;;;;;13.93;13.43;;;24.10;59.30;;;;;;5033199;28;20527;-53
2021/11/12 11:37:37;;;;;;;12.60;12.20;;;24.00;58.80;;;;;;5033305;28;20488;-54
2021/11/12 11:40:04;;;;;;;12.83;12.43;;;23.80;58.50;;;;;;5032949;28;20492;-49
2021/11/12 11:42:33;;;;;;;14.33;13.77;;;23.90;58.70;;;;;;5033030;28;20441;-52
2021/11/12 11:45:01;;;;;;;14.10;13.60;;;24.20;57.90;;;;;;5033159;28;20836;-51
2021/11/12 11:47:30;;;;;;;13.30;12.90;;;24.30;56.80;;;;;;5032979;28;20477;-53
2021/11/12 11:49:57;;;;;;;14.37;13.87;;;24.20;56.50;;;;;;5032926;28;20453;-54
2021/11/12 11:52:26;;;;;;;14.47;13.97;;;24.30;56.20;;;;;;5032943;28;20449;-51
2021/11/12 11:54:53;;;;;;;13.20;12.80;;;24.40;55.80;;;;;;5031979;28;20473;-56
2021/11/12 11:57:23;;;;;;;14.27;13.67;;;24.30;55.50;;;;;;5032853;28;20461;-50
2021/11/12 12:00:20;;;;;;;13.57;13.07;;;24.10;55.30;;;;;;5032664;28;20511;-52
2021/11/12 12:02:48;;;;;;;13.60;13.10;;;23.90;55.70;;;;;;5032841;28;20927;-52
2021/11/12 12:05:15;;;;;;;13.47;12.97;;;23.60;55.90;;;;;;5032985;28;20459;-53
2021/11/12 12:07:44;;;;;;;13.40;12.90;;;23.10;56.70;;;;;;5032880;28;20477;-51
2021/11/12 12:10:24;;;;;;;14.03;13.53;;;22.90;57.60;;;;;;5032320;28;20449;-49
2021/11/12 12:12:56;;;;;;;15.10;14.60;;;22.80;58.20;;;;;;5032614;28;20476;-50
2021/11/12 12:15:46;;;;;;;13.87;13.37;;;23.00;58.30;;;;;;5032509;28;20815;-54
2021/11/12 12:18:23;;;;;;;13.87;13.37;;;23.10;58.10;;;;;;5032354;28;20487;-51
2021/11/12 12:33:32;;;;;;;14.40;13.87;;;23.10;57.50;;;;;;5032486;28;20835;-53
2021/11/12 12:36:56;;;;;;;14.63;14.03;;;23.10;57.60;;;;;;5032338;28;21065;-51
2021/11/12 12:40:21;;;;;;;13.77;13.37;;;22.90;57.50;;;;;;5031933;28;20441;-54
2021/11/12 13:22:47;;;;;;;12.63;12.33;;;22.40;58.70;;;;;;5031929;28;20439;-53
2021/11/12 13:25:24;;;;;;;14.17;13.70;;;22.50;58.50;;;;;;5031763;28;20449;-57
2021/11/12 13:28:03;;;;;;;13.70;13.20;;;22.50;58.30;;;;;;5031820;28;20451;-51
2021/11/12 13:30:30;;;;;;;12.67;12.27;;;22.60;58.20;;;;;;5031487;28;20815;-54
2021/11/12 13:32:57;;;;;;;12.90;12.50;;;22.60;58.00;;;;;;5031577;28;20441;-52
2021/11/12 13:35:29;;;;;;;13.87;13.47;;;22.50;57.90;;;;;;5031508;28;20452;-51
2021/11/12 13:37:57;;;;;;;13.83;13.43;;;22.40;58.00;;;;;;5031805;28;20445;-54
2021/11/12 13:40:24;;;;;;;13.40;13.00;;;22.40;58.20;;;;;;5031360;28;20437;-54
2021/11/12 13:42:52;;;;;;;13.13;12.73;;;22.40;58.20;;;;;;5031587;28;20931;-51
2021/11/12 13:45:22;;;;;;;13.53;13.13;;;22.30;58.20;;;;;;5031507;28;20448;-52
2021/11/12 13:48:00;;;;;;;14.00;13.60;;;22.20;58.20;;;;;;5031393;28;20441;-52
2021/11/12 13:50:27;;;;;;;13.37;12.97;;;22.20;58.50;;;;;;5031327;28;20464;-53
2021/11/12 13:52:54;;;;;;;12.83;12.43;;;22.10;58.50;;;;;;5031629;28;20448;-54
2021/11/12 13:55:24;;;;;;;12.73;12.33;;;22.10;58.80;;;;;;5031416;28;20840;-56
2021/11/12 13:57:57;;;;;;;12.70;12.30;;;22.00;58.80;;;;;;5031609;28;20441;-52
2021/11/12 14:00:26;;;;;;;13.33;12.93;;;22.00;58.90;;;;;;5030902;28;20453;-52
2021/11/12 14:02:58;;;;;;;12.70;12.30;;;21.90;58.90;;;;;;5031273;28;20812;-53
2021/11/12 14:05:27;;;;;;;12.03;11.73;;;21.90;59.10;;;;;;5030408;28;20452;-52
2021/11/12 14:08:07;;;;;;;13.13;12.73;;;21.80;59.20;;;;;;5030781;28;20484;-50
2021/11/12 14:10:39;;;;;;;13.07;12.67;;;21.70;59.40;;;;;;5031114;28;20444;-51
2021/11/12 14:13:07;;;;;;;13.10;12.67;;;21.70;59.60;;;;;;5031126;28;20441;-49
2021/11/12 14:15:39;;;;;;;12.93;12.53;;;21.60;59.90;;;;;;5030928;28;20449;-50
2021/11/12 14:18:20;;;;;;;12.77;12.37;;;21.50;60.40;;;;;;5033103;28;20445;-55
2021/11/12 14:21:23;;;;;;;11.87;11.50;;;21.40;60.90;;;;;;5034725;28;21027;-51
2021/11/12 14:24:06;;;;;;;13.30;12.83;;;21.30;61.90;;;;;;5034780;28;20543;-62
2021/11/12 14:26:36;;;;;;;12.03;11.63;;;21.20;63.40;;;;;;5035829;28;20833;-59
2021/11/12 14:29:06;;;;;;;13.30;12.90;;;21.10;64.30;;;;;;5035069;28;20815;-58
2021/11/12 14:31:59;;;;;;;12.37;11.97;;;21.00;64.70;;;;;;5034900;28;20473;-59
2021/11/12 14:34:37;;;;;;;11.77;11.40;;;20.90;65.20;;;;;;5034919;28;20453;-60
2021/11/12 14:37:08;;;;;;;13.03;12.43;;;20.80;65.90;;;;;;5035381;28;20559;-58
2021/11/12 14:39:46;;;;;;;12.30;11.90;;;20.70;66.70;;;;;;5034554;28;20449;-60
2021/11/12 14:45:11;;;;;;;12.37;11.80;;;20.50;70.20;;;;;;5034246;28;20788;-52
2021/11/12 14:50:30;;;;;;;13.90;13.10;;;20.40;70.30;;;;;;5013642;28;20529;-59
2021/11/12 14:53:17;;;;;;;12.90;12.40;;;20.30;71.20;;;;;;5026500;28;20453;-55
2021/11/12 14:55:45;;;;;;;11.90;11.50;;;20.20;71.80;;;;;;5033690;28;21013;-58
2021/11/12 14:58:18;;;;;;;12.27;11.77;;;20.10;72.40;;;;;;5033606;28;20449;-59
2021/11/12 15:00:46;;;;;;;12.03;11.63;;;20.00;72.80;;;;;;5033259;28;20449;-58
2021/11/12 15:03:12;;;;;;;12.90;12.30;;;20.00;73.30;;;;;;5033554;28;20791;-56
2021/11/12 15:05:39;;;;;;;13.50;13.00;;;19.90;73.50;;;;;;5033306;28;20445;-58
2021/11/12 15:08:11;;;;;;;11.57;11.17;;;19.80;73.70;;;;;;5033386;28;20441;-55
2021/11/12 15:10:39;;;;;;;12.60;12.20;;;19.80;74.20;;;;;;5033088;28;20445;-58
2021/11/12 15:13:06;;;;;;;11.80;11.40;;;19.80;74.40;;;;;;5033449;28;20449;-56
2021/11/12 15:15:34;;;;;;;11.80;11.40;;;19.70;74.60;;;;;;5032994;28;20445;-55
2021/11/12 15:18:05;;;;;;;12.17;11.77;;;19.60;75.60;;;;;;5033133;28;20453;-55
2021/11/12 15:20:32;;;;;;;12.50;12.17;;;19.60;75.20;;;;;;5032931;28;20485;-59
2021/11/12 15:25:58;;;;;;;12.00;11.60;;;19.50;75.60;;;;;;5027676;28;20604;-58
2021/11/12 15:28:33;;;;;;;12.07;11.67;;;19.50;76.00;;;;;;5033057;28;20809;-57
2021/11/12 15:31:06;;;;;;;12.17;11.73;;;19.40;76.10;;;;;;5033002;28;20543;-56
2021/11/12 15:33:33;;;;;;;11.73;11.23;;;19.40;76.60;;;;;;5032961;28;20829;-60
2021/11/12 15:36:03;;;;;;;11.37;11.00;;;19.40;76.70;;;;;;5032752;28;20456;-59
2021/11/12 15:38:34;;;;;;;11.97;11.57;;;19.30;76.90;;;;;;5033038;28;20441;-58
2021/11/12 15:41:05;;;;;;;12.03;11.53;;;19.20;77.30;;;;;;5032630;28;20837;-58
2021/11/12 15:43:40;;;;;;;10.87;10.50;;;19.20;77.50;;;;;;5032653;28;20532;-57
2021/11/12 15:46:13;;;;;;;11.13;10.73;;;19.10;77.60;;;;;;5032674;28;20483;-56
2021/11/12 15:48:41;;;;;;;10.43;10.10;;;19.10;78.00;;;;;;5032488;28;20828;-60
2021/11/12 15:51:22;;;;;;;11.13;10.73;;;19.10;78.30;;;;;;5032569;28;20503;-57
2021/11/12 15:53:54;;;;;;;10.43;10.13;;;19.00;78.60;;;;;;5032581;28;20445;-56
2021/11/12 15:56:48;;;;;;;10.20;9.90;;;19.00;78.60;;;;;;5032458;28;20577;-56
2021/11/12 15:59:26;;;;;;;10.93;10.53;;;19.00;78.90;;;;;;5032210;28;20456;-58
2021/11/12 16:05:05;;;;;;;9.90;9.70;;;18.90;79.60;;;;;;5006662;28;20433;-60
2021/11/12 16:07:51;;;;;;;10.73;10.43;;;18.80;79.90;;;;;;5032149;28;20527;-58
2021/11/12 16:13:03;;;;;;;13.70;13.20;;;18.80;80.20;;;;;;5001338;28;20437;-57
2021/11/12 16:18:23;;;;;;;13.23;12.80;;;18.80;80.60;;;;;;5030296;28;20494;-57
2021/11/12 16:21:07;;;;;;;12.67;12.27;;;18.80;80.60;;;;;;5031919;28;20532;-59
2021/11/12 16:26:22;;;;;;;13.40;13.00;;;18.80;81.00;;;;;;5031883;28;20475;-57
2021/11/12 16:28:59;;;;;;;13.63;13.10;;;18.80;80.90;;;;;;5031781;28;20445;-60
2021/11/12 16:31:29;;;;;;;13.30;12.80;;;18.80;80.80;;;;;;5031881;28;20463;-59
2021/11/12 16:34:01;;;;;;;14.00;13.50;;;18.70;80.90;;;;;;5031865;28;20445;-55